Seattle, WA (98115)

2:52 AM PDT on April 25, 2017 (GMT -0700)
MC3186 | | Change Station

Elev 301 ft 47.69 °N, 122.28 °W | Updated 41 days ago

Overcast
Overcast
55.0 °F
Feels Like 55.0 °F
N
3.0
Wind Variable Wind from SSW
Gusts 14.0 mph

Today
High -- | Low -- °F
--% Chance of Precip.
Yesterday
High -- | Low -- °F
Precip. -- in
Pressure 29.95 in
Visibility 10.0 miles
Clouds Overcast 1700 ft
Dew Point 54.0 °F
Humidity 96%
Rainfall 0.00 in
Snow Depth Not available.
6:01 AM 8:13 PM
Waning Crescent, 2% visible
METAR KBFI 250853Z 18008KT 10SM OVC017 10/08 A2995 RMK AO2 SLP142 T01000078 50011
Pressure 29.95 in
Visibility 10.0 miles
Clouds Overcast 1700 ft
Dew Point 54.0 °F
Humidity 96%
Rainfall 0.00 in
Snow Depth Not available.
6:01 AM 8:13 PM
Waning Crescent, 2% visible
METAR KBFI 250853Z 18008KT 10SM OVC017 10/08 A2995 RMK AO2 SLP142 T01000078 50011

Get Severe Weather Alerts

Thanks for signing up!

Be on the lookout for a verification email in your inbox.

You'll start receiving the daily forecast at 8 AM.

×

10-Day Weather Forecast

Almanac

Astronomy

Apr. 25, 2017 Rise Set
Actual Time
Civil Twilight
Nautical Twilight
Astronomical Twilight
Moon
Length of Visible Light
Length of Day
Tomorrow will be .
, % of the Moon is Illuminated

Today's Extremes

State Highs State Lows

Community

WunderPhotos

WunderBlog® & News

Nearby

Air Quality

  Air Quality AQ Index Pollutant
Not available.

Snow Depth

Station Depth Elevation

Earthquake Activity

City Distance Mag. Time & Date
Minimum magnitude displayed is 2.5.

Coastal Water Temperatures

Place Temperature

Stations

Nearby Weather Stations

Station Location Temp. Windchill Dew Point Humidity Wind Precip. Elev Updated Type
                   

Watches & Warnings

There are currently no watches in effect.